createdAt,value
2023-02-20T00:03:32.166Z,89.03
2023-02-20T00:08:35.035Z,89.43
2023-02-20T00:13:37.958Z,89.52
2023-02-20T00:18:43.392Z,89.61
2023-02-20T00:23:46.396Z,89.79
2023-02-20T00:28:49.211Z,90.28
2023-02-20T00:33:52.304Z,90.15
2023-02-20T00:38:55.079Z,90.13
2023-02-20T00:43:57.896Z,89.85
2023-02-20T00:49:00.669Z,89.57
2023-02-20T00:54:03.936Z,88.96
2023-02-20T00:59:06.732Z,88.48
2023-02-20T01:04:09.626Z,88.12
2023-02-20T01:09:15.583Z,87.55
2023-02-20T01:14:18.541Z,87.16
2023-02-20T01:19:25.191Z,86.53
2023-02-20T01:24:28.161Z,86.25
2023-02-20T01:29:31.167Z,85.93
2023-02-20T01:34:33.992Z,85.60
2023-02-20T01:39:37.087Z,85.51
2023-02-20T01:44:40.518Z,85.47
2023-02-20T01:50:05.357Z,85.29
2023-02-20T01:55:15.625Z,85.04
2023-02-20T02:00:21.478Z,85.08
2023-02-20T02:05:28.817Z,85.06
2023-02-20T02:10:38.613Z,84.83
2023-02-20T02:15:41.846Z,84.94
2023-02-20T02:20:50.760Z,85.08
2023-02-20T02:26:18.036Z,85.23
2023-02-20T02:31:31.032Z,85.25
2023-02-20T02:36:51.582Z,85.50
2023-02-20T02:42:05.296Z,85.71
2023-02-20T02:47:35.489Z,85.76
2023-02-20T02:52:49.540Z,86.16
2023-02-20T02:57:52.508Z,86.22
2023-02-20T03:03:01.531Z,86.17
2023-02-20T03:08:05.681Z,86.05
2023-02-20T03:13:12.700Z,86.04
2023-02-20T03:18:29.455Z,85.84
2023-02-20T03:23:35.544Z,86.06
2023-02-20T03:28:46.967Z,86.05
2023-02-20T03:34:31.159Z,85.98
2023-02-20T03:39:57.969Z,85.92
2023-02-20T03:45:02.945Z,85.65
2023-02-20T03:50:27.978Z,85.26
2023-02-20T03:55:31.065Z,84.80
2023-02-20T04:00:40.909Z,84.64
2023-02-20T04:05:47.244Z,84.96
2023-02-20T04:10:57.940Z,84.88
2023-02-20T04:16:02.518Z,84.86
2023-02-20T04:21:13.094Z,84.86
2023-02-20T04:26:20.029Z,84.73
2023-02-20T04:31:23.504Z,85.43
2023-02-20T04:36:26.802Z,86.06
2023-02-20T04:41:29.588Z,85.67
2023-02-20T04:46:32.470Z,85.74
2023-02-20T04:51:35.289Z,85.76
2023-02-20T04:56:38.086Z,85.38
2023-02-20T05:01:41.950Z,84.32
2023-02-20T05:06:52.899Z,83.63
2023-02-20T05:11:55.734Z,83.89
2023-02-20T05:16:58.955Z,84.03
2023-02-20T05:22:19.929Z,83.75
2023-02-20T05:27:24.266Z,84.08
2023-02-20T05:32:29.447Z,83.93
2023-02-20T05:37:33.758Z,83.83
2023-02-20T05:42:37.839Z,83.78
2023-02-20T05:47:40.747Z,83.42
2023-02-20T05:52:44.909Z,83.22
2023-02-20T05:57:48.041Z,83.18
2023-02-20T06:02:51.214Z,82.91
2023-02-20T06:07:54.033Z,82.48
2023-02-20T06:12:56.853Z,82.61
2023-02-20T06:18:01.279Z,82.87
2023-02-20T06:23:05.277Z,83.21
2023-02-20T06:28:09.063Z,82.54
2023-02-20T06:33:12.009Z,82.54
2023-02-20T06:38:17.231Z,82.37
2023-02-20T06:43:20.356Z,82.99
2023-02-20T06:48:23.233Z,82.95
2023-02-20T06:53:27.669Z,83.64
2023-02-20T06:58:32.893Z,84.15
2023-02-20T07:03:37.471Z,84.82
2023-02-20T07:08:44.049Z,85.69
2023-02-20T07:13:48.148Z,86.42
2023-02-20T07:18:51.127Z,87.24
2023-02-20T07:23:55.201Z,87.78
2023-02-20T07:29:03.529Z,88.05
2023-02-20T07:34:09.500Z,87.95
2023-02-20T07:39:18.122Z,88.10
2023-02-20T07:44:21.257Z,88.17
2023-02-20T07:49:26.098Z,87.36
2023-02-20T07:54:31.138Z,87.44
2023-02-20T07:59:34.783Z,87.80
2023-02-20T08:04:39.477Z,87.76
2023-02-20T08:09:43.038Z,87.37
2023-02-20T08:14:46.500Z,88.17
2023-02-20T08:19:49.512Z,87.92
2023-02-20T08:24:54.793Z,88.57
2023-02-20T08:30:11.153Z,89.25
2023-02-20T08:35:20.729Z,89.01
2023-02-20T08:40:29.454Z,89.71
2023-02-20T08:45:34.291Z,89.97
2023-02-20T08:50:37.742Z,90.15
2023-02-20T08:55:46.670Z,89.74
2023-02-20T09:01:02.554Z,89.35
2023-02-20T09:06:06.223Z,88.23
2023-02-20T09:11:10.316Z,89.07
2023-02-20T09:16:22.133Z,90.54
2023-02-20T09:21:25.411Z,91.53
2023-02-20T09:26:28.458Z,92.22
2023-02-20T09:31:31.747Z,93.01
2023-02-20T09:36:35.263Z,93.54
2023-02-20T09:41:55.472Z,93.71
2023-02-20T09:47:07.229Z,94.66
2023-02-20T09:52:15.379Z,95.12
2023-02-20T09:57:23.900Z,95.70
2023-02-20T10:02:38.012Z,96.32
2023-02-20T10:07:44.166Z,96.82
2023-02-20T10:12:55.904Z,97.14
2023-02-20T10:18:14.016Z,97.74
2023-02-20T10:23:35.802Z,97.60
2023-02-20T10:28:39.692Z,98.02
2023-02-20T10:33:46.160Z,97.87
2023-02-20T10:38:54.659Z,98.24
2023-02-20T10:44:26.124Z,98.50
2023-02-20T10:49:42.390Z,98.68
2023-02-20T10:55:15.602Z,98.72
2023-02-20T11:00:41.117Z,99.16
2023-02-20T11:05:48.894Z,99.64
2023-02-20T11:11:06.250Z,99.97
2023-02-20T11:16:24.399Z,100.00
2023-02-20T11:21:38.425Z,100.00
2023-02-20T11:26:41.248Z,100.00
2023-02-20T11:31:48.580Z,100.00
2023-02-20T11:36:55.058Z,100.00
2023-02-20T11:42:07.245Z,100.00
2023-02-20T11:47:10.025Z,100.00
2023-02-20T11:52:22.754Z,100.00
2023-02-20T11:57:30.844Z,100.00
2023-02-20T12:02:35.526Z,100.00
2023-02-20T12:07:59.585Z,100.00
2023-02-20T12:13:04.719Z,100.00
2023-02-20T12:18:13.837Z,100.00
2023-02-20T12:23:44.742Z,100.00
2023-02-20T12:29:01.287Z,100.00
2023-02-20T12:34:41.292Z,100.00
2023-02-20T12:40:01.029Z,100.00
2023-02-20T12:45:19.085Z,100.00
2023-02-20T12:50:47.090Z,100.00
2023-02-20T12:56:12.453Z,100.00
2023-02-20T13:01:22.789Z,100.00
2023-02-20T13:07:02.853Z,100.00
2023-02-20T13:12:16.928Z,100.00
2023-02-20T13:17:37.557Z,100.00
2023-02-20T13:22:40.960Z,100.00
2023-02-20T13:27:43.888Z,100.00
2023-02-20T13:32:48.524Z,100.00
2023-02-20T13:37:54.980Z,100.00
2023-02-20T13:43:36.320Z,100.00
2023-02-20T13:48:47.015Z,100.00
2023-02-20T13:54:25.879Z,100.00
2023-02-20T13:59:40.069Z,100.00
2023-02-20T14:05:18.491Z,100.00
2023-02-20T14:10:28.634Z,100.00
2023-02-20T14:15:34.513Z,100.00
2023-02-20T14:20:47.674Z,100.00
2023-02-20T14:26:04.490Z,100.00
2023-02-20T14:31:24.643Z,100.00
2023-02-20T14:36:46.585Z,100.00
2023-02-20T14:41:55.264Z,100.00
2023-02-20T14:47:18.403Z,100.00
2023-02-20T14:52:28.887Z,100.00
2023-02-20T14:57:32.314Z,100.00
2023-02-20T15:02:35.207Z,100.00
2023-02-20T15:07:40.359Z,100.00
2023-02-20T15:12:43.875Z,100.00
2023-02-20T15:23:16.224Z,100.00
2023-02-20T15:28:21.609Z,100.00
2023-02-20T15:33:24.957Z,100.00
2023-02-20T15:38:36.441Z,100.00
2023-02-20T15:43:49.943Z,100.00
2023-02-20T15:48:56.824Z,100.00
2023-02-20T15:54:00.492Z,100.00
2023-02-20T15:59:10.071Z,100.00
2023-02-20T16:04:16.256Z,100.00
2023-02-20T16:09:19.895Z,100.00
2023-02-20T16:14:22.825Z,100.00
2023-02-20T16:19:41.800Z,100.00
2023-02-20T16:24:47.186Z,100.00
2023-02-20T16:29:51.329Z,100.00
2023-02-20T16:34:56.176Z,100.00
2023-02-20T16:39:59.128Z,100.00
2023-02-20T16:45:11.505Z,100.00
2023-02-20T16:50:17.100Z,100.00
2023-02-20T16:55:36.789Z,100.00
2023-02-20T17:00:54.872Z,100.00
2023-02-20T17:06:00.104Z,100.00
2023-02-20T17:11:03.028Z,100.00
2023-02-20T17:16:06.281Z,100.00
2023-02-20T17:21:10.045Z,100.00
2023-02-20T17:26:13.916Z,100.00
2023-02-20T17:31:17.238Z,100.00
2023-02-20T17:36:20.222Z,100.00
2023-02-20T17:41:23.245Z,100.00
2023-02-20T17:46:26.554Z,100.00
2023-02-20T17:51:30.070Z,100.00
2023-02-20T17:56:33.107Z,100.00
2023-02-20T18:01:37.502Z,100.00
2023-02-20T18:06:41.896Z,100.00
2023-02-20T18:11:46.510Z,100.00
2023-02-20T18:16:50.438Z,100.00
2023-02-20T18:21:53.342Z,100.00
2023-02-20T18:26:57.044Z,100.00
2023-02-20T18:32:00.259Z,100.00
2023-02-20T18:37:04.893Z,100.00
2023-02-20T18:42:08.172Z,100.00
2023-02-20T18:47:12.184Z,100.00
2023-02-20T18:52:18.205Z,100.00
2023-02-20T18:57:22.206Z,100.00
2023-02-20T19:02:27.483Z,100.00
2023-02-20T19:07:30.550Z,100.00
2023-02-20T19:12:33.410Z,99.93
2023-02-20T19:17:37.940Z,100.00
2023-02-20T19:22:42.577Z,100.00
2023-02-20T19:27:45.724Z,100.00
2023-02-20T19:32:48.787Z,100.00
2023-02-20T19:37:52.202Z,100.00
2023-02-20T19:42:57.374Z,99.32
2023-02-20T19:48:00.241Z,95.86
2023-02-20T19:53:03.318Z,94.36
2023-02-20T19:58:06.120Z,94.55
2023-02-20T20:03:09.041Z,93.88
2023-02-20T20:08:12.260Z,91.47
2023-02-20T20:13:15.611Z,89.67
2023-02-20T20:18:18.798Z,88.27
2023-02-20T20:23:22.032Z,87.71
2023-02-20T20:28:27.098Z,88.33
2023-02-20T20:33:31.132Z,87.15
2023-02-20T20:38:38.922Z,87.54
2023-02-20T20:43:46.022Z,86.58
2023-02-20T20:48:48.825Z,86.08
2023-02-20T20:53:51.713Z,86.27
2023-02-20T20:58:54.790Z,86.16
2023-02-20T21:04:02.824Z,86.31
2023-02-20T21:09:05.758Z,85.68
2023-02-20T21:14:09.791Z,84.73
2023-02-20T21:19:13.423Z,83.73
2023-02-20T21:24:16.435Z,82.97
2023-02-20T21:29:19.355Z,82.84
2023-02-20T21:34:22.830Z,81.20
2023-02-20T21:39:26.099Z,81.83
2023-02-20T21:44:29.328Z,81.97
2023-02-20T21:49:33.916Z,82.43
2023-02-20T21:54:36.833Z,82.63
2023-02-20T21:59:39.605Z,83.11
2023-02-20T22:04:42.484Z,83.23
2023-02-20T22:10:03.650Z,83.31
2023-02-20T22:15:25.839Z,83.15
2023-02-20T22:20:47.245Z,82.89
2023-02-20T22:26:08.287Z,82.58
2023-02-20T22:31:29.528Z,82.15
2023-02-20T22:36:51.186Z,82.07
2023-02-20T22:42:18.482Z,81.23
2023-02-20T22:47:40.104Z,80.38
2023-02-20T22:53:01.471Z,80.00
2023-02-20T22:58:22.883Z,79.19
2023-02-20T23:03:44.725Z,78.89
2023-02-20T23:09:07.799Z,79.15
2023-02-20T23:14:29.768Z,78.80
2023-02-20T23:19:51.063Z,78.94
2023-02-20T23:25:12.300Z,78.65
2023-02-20T23:30:36.716Z,78.43
2023-02-20T23:35:58.116Z,77.58
2023-02-20T23:41:19.493Z,77.50
2023-02-20T23:46:42.997Z,77.25
2023-02-20T23:52:14.814Z,77.18
2023-02-20T23:57:37.382Z,77.01
